createdAt,value
2022-10-17T00:00:17.208Z,23.90
2022-10-17T00:01:17.496Z,22.40
2022-10-17T00:02:17.248Z,24.50
2022-10-17T00:03:17.458Z,17.80
2022-10-17T00:04:17.200Z,20.80
2022-10-17T00:05:17.449Z,22.40
2022-10-17T00:06:17.258Z,23.40
2022-10-17T00:07:17.470Z,23.10
2022-10-17T00:08:17.219Z,19.90
2022-10-17T00:09:17.312Z,16.20
2022-10-17T00:10:17.179Z,21.00
2022-10-17T00:11:17.359Z,25.20
2022-10-17T00:12:17.249Z,17.40
2022-10-17T00:13:17.269Z,16.70
2022-10-17T00:14:17.229Z,21.40
2022-10-17T00:15:17.268Z,23.00
2022-10-17T00:16:16.454Z,20.00
2022-10-17T00:17:17.140Z,20.00
2022-10-17T00:18:16.417Z,24.10
2022-10-17T00:19:18.140Z,20.60
2022-10-17T00:20:16.404Z,22.70
2022-10-17T00:21:17.049Z,19.50
2022-10-17T00:22:17.389Z,17.90
2022-10-17T00:23:17.022Z,22.10
2022-10-17T00:24:16.360Z,15.20
2022-10-17T00:25:17.790Z,19.20
2022-10-17T00:26:16.599Z,22.70
2022-10-17T00:27:16.362Z,18.50
2022-10-17T00:28:17.171Z,23.90
2022-10-17T00:29:16.289Z,21.10
2022-10-17T00:30:17.820Z,17.40
2022-10-17T00:31:16.870Z,20.10
2022-10-17T00:32:16.339Z,20.10
2022-10-17T00:33:18.068Z,18.20
2022-10-17T00:34:17.619Z,16.20
2022-10-17T00:35:16.229Z,22.50
2022-10-17T00:36:17.839Z,17.60
2022-10-17T00:37:17.080Z,20.00
2022-10-17T00:38:16.859Z,17.80
2022-10-17T00:39:16.188Z,19.00
2022-10-17T00:40:16.858Z,21.20
2022-10-17T00:41:17.001Z,20.10
2022-10-17T00:42:16.219Z,19.10
2022-10-17T00:43:17.821Z,17.10
2022-10-17T00:44:16.650Z,18.40
2022-10-17T00:45:16.921Z,19.00
2022-10-17T00:46:16.119Z,22.60
2022-10-17T00:47:16.713Z,20.10
2022-10-17T00:48:18.890Z,20.40
2022-10-17T00:49:16.750Z,26.60
2022-10-17T00:50:16.099Z,18.40
2022-10-17T00:51:17.562Z,18.20
2022-10-17T00:52:16.339Z,21.30
2022-10-17T00:53:16.829Z,16.50
2022-10-17T00:54:16.829Z,13.90
2022-10-17T00:55:16.768Z,16.60
2022-10-17T00:56:16.809Z,19.20
2022-10-17T00:57:16.009Z,14.60
2022-10-17T00:58:17.371Z,14.30
2022-10-17T00:59:16.079Z,15.50
2022-10-17T01:00:16.854Z,14.90
2022-10-17T01:01:16.840Z,13.50
2022-10-17T01:02:16.554Z,12.30
2022-10-17T01:03:16.819Z,14.00
2022-10-17T01:04:16.571Z,11.50
2022-10-17T01:05:16.721Z,12.90
2022-10-17T01:06:16.559Z,12.90
2022-10-17T01:07:15.918Z,17.60
2022-10-17T01:08:17.399Z,14.20
2022-10-17T01:09:16.730Z,16.00
2022-10-17T01:10:15.925Z,22.80
2022-10-17T01:11:16.719Z,19.00
2022-10-17T01:12:16.529Z,17.00
2022-10-17T01:13:16.709Z,17.00
2022-10-17T01:14:16.589Z,18.80
2022-10-17T01:15:16.589Z,19.80
2022-10-17T01:16:15.818Z,25.60
2022-10-17T01:17:16.679Z,22.00
2022-10-17T01:18:15.840Z,16.10
2022-10-17T01:19:16.563Z,17.20
2022-10-17T01:20:16.559Z,17.00
2022-10-17T01:21:16.445Z,17.50
2022-10-17T01:22:16.552Z,23.10
2022-10-17T01:23:16.399Z,14.50
2022-10-17T01:24:16.599Z,14.60
2022-10-17T01:25:15.719Z,14.90
2022-10-17T01:26:17.339Z,18.00
2022-10-17T01:27:16.550Z,17.00
2022-10-17T01:28:16.498Z,18.70
2022-10-17T01:29:16.430Z,17.80
2022-10-17T01:30:16.480Z,15.20
2022-10-17T01:31:16.589Z,18.80
2022-10-17T01:32:17.448Z,16.00
2022-10-17T01:33:16.390Z,17.40
2022-10-17T01:34:15.669Z,20.80
2022-10-17T01:35:16.821Z,17.30
2022-10-17T01:36:16.329Z,14.70
2022-10-17T01:37:16.360Z,17.80
2022-10-17T01:38:15.589Z,21.80
2022-10-17T01:39:16.529Z,18.20
2022-10-17T01:40:15.581Z,19.10
2022-10-17T01:41:16.359Z,15.10
2022-10-17T01:42:16.209Z,14.30
2022-10-17T01:43:16.329Z,17.30
2022-10-17T01:44:15.581Z,18.40
2022-10-17T01:45:16.431Z,19.20
2022-10-17T01:46:15.499Z,22.40
2022-10-17T01:47:17.309Z,21.10
2022-10-17T01:48:16.252Z,15.30
2022-10-17T01:49:16.141Z,15.90
2022-10-17T01:50:16.249Z,19.10
2022-10-17T01:51:15.449Z,19.80
2022-10-17T01:52:16.228Z,16.70
2022-10-17T01:53:16.310Z,15.40
2022-10-17T01:54:16.228Z,19.10
2022-10-17T01:55:16.119Z,16.20
2022-10-17T01:56:16.319Z,23.20
2022-10-17T01:57:16.049Z,22.20
2022-10-17T01:58:15.379Z,19.20
2022-10-17T01:59:16.933Z,21.60
2022-10-17T02:00:15.668Z,17.50
2022-10-17T02:01:15.440Z,17.50
2022-10-17T02:02:16.869Z,20.20
2022-10-17T02:03:16.170Z,24.60
2022-10-17T02:04:15.319Z,18.50
2022-10-17T02:05:16.778Z,20.00
2022-10-17T02:06:15.698Z,23.30
2022-10-17T02:07:15.299Z,18.20
2022-10-17T02:08:16.919Z,16.80
2022-10-17T02:09:15.929Z,17.80
2022-10-17T02:10:15.339Z,21.00
2022-10-17T02:11:16.279Z,21.80
2022-10-17T02:12:15.905Z,18.80
2022-10-17T02:13:16.079Z,19.90
2022-10-17T02:14:15.931Z,21.40
2022-10-17T02:15:16.129Z,22.50
2022-10-17T02:16:15.988Z,20.30
2022-10-17T02:17:15.189Z,20.50
2022-10-17T02:18:17.118Z,20.10
2022-10-17T02:19:15.848Z,24.20
2022-10-17T02:20:15.938Z,20.00
2022-10-17T02:21:16.408Z,21.90
2022-10-17T02:22:15.250Z,18.50
2022-10-17T02:23:15.803Z,25.80
2022-10-17T02:24:15.900Z,30.50
2022-10-17T02:25:15.099Z,19.30
2022-10-17T02:26:16.298Z,23.00
2022-10-17T02:27:15.760Z,21.00
2022-10-17T02:28:15.919Z,23.00
2022-10-17T02:29:15.753Z,25.30
2022-10-17T02:30:15.062Z,19.10
2022-10-17T02:31:15.982Z,20.10
2022-10-17T02:32:15.900Z,21.50
2022-10-17T02:33:15.018Z,19.60
2022-10-17T02:34:16.319Z,18.90
2022-10-17T02:35:15.929Z,22.00
2022-10-17T02:36:15.718Z,17.70
2022-10-17T02:37:14.979Z,22.00
2022-10-17T02:38:15.001Z,20.50
2022-10-17T02:39:16.420Z,22.50
2022-10-17T02:40:16.659Z,24.60
2022-10-17T02:41:15.848Z,21.00
2022-10-17T02:42:14.939Z,19.20
2022-10-17T02:43:15.920Z,16.50
2022-10-17T02:44:15.659Z,20.30
2022-10-17T02:45:15.699Z,20.40
2022-10-17T02:46:14.899Z,20.20
2022-10-17T02:47:16.540Z,24.30
2022-10-17T02:48:15.310Z,21.50
2022-10-17T02:49:14.848Z,17.70
2022-10-17T02:50:16.706Z,20.60
2022-10-17T02:51:14.899Z,26.90
2022-10-17T02:52:14.880Z,17.70
2022-10-17T02:53:16.397Z,21.20
2022-10-17T02:54:15.649Z,19.00
2022-10-17T02:55:14.791Z,19.20
2022-10-17T02:56:15.570Z,19.50
2022-10-17T02:57:14.831Z,18.00
2022-10-17T02:58:15.840Z,17.90
2022-10-17T02:59:14.750Z,18.40
2022-10-17T03:00:16.412Z,22.50
2022-10-17T03:01:15.193Z,18.80
2022-10-17T03:02:15.629Z,16.30
2022-10-17T03:03:15.580Z,19.30
2022-10-17T03:04:15.530Z,20.90
2022-10-17T03:05:15.571Z,19.30
2022-10-17T03:06:14.690Z,23.80
2022-10-17T03:07:15.609Z,15.80
2022-10-17T03:08:14.669Z,26.70
2022-10-17T03:09:15.460Z,19.60
2022-10-17T03:10:15.310Z,21.20
2022-10-17T03:11:14.630Z,20.00
2022-10-17T03:12:16.339Z,16.00
2022-10-17T03:13:15.099Z,19.30
2022-10-17T03:14:14.599Z,18.80
2022-10-17T03:15:15.359Z,20.40
2022-10-17T03:16:15.369Z,25.70
2022-10-17T03:17:15.649Z,18.60
2022-10-17T03:18:14.569Z,20.20
2022-10-17T03:19:15.369Z,21.70
2022-10-17T03:20:14.531Z,22.50
2022-10-17T03:21:15.839Z,18.00
2022-10-17T03:22:15.329Z,20.30
2022-10-17T03:23:15.090Z,22.50
2022-10-17T03:24:15.319Z,20.20
2022-10-17T03:25:14.488Z,21.50
2022-10-17T03:26:15.989Z,18.60
2022-10-17T03:27:14.818Z,17.90
2022-10-17T03:28:15.459Z,23.00
2022-10-17T03:29:15.129Z,21.40
2022-10-17T03:30:15.319Z,22.20
2022-10-17T03:31:14.419Z,25.90
2022-10-17T03:32:15.230Z,25.80
2022-10-17T03:33:15.291Z,18.20
2022-10-17T03:34:15.230Z,22.10
2022-10-17T03:35:15.272Z,18.80
2022-10-17T03:36:15.170Z,14.90
2022-10-17T03:37:15.102Z,21.40
2022-10-17T03:38:14.399Z,18.00
2022-10-17T03:39:15.170Z,16.20
2022-10-17T03:40:15.043Z,18.20
2022-10-17T03:41:16.279Z,21.40
2022-10-17T03:42:15.120Z,17.60
2022-10-17T03:43:14.339Z,15.80
2022-10-17T03:44:15.920Z,19.60
2022-10-17T03:45:15.060Z,15.70
2022-10-17T03:46:15.093Z,31.90
2022-10-17T03:47:16.085Z,14.00
2022-10-17T03:48:15.050Z,15.80
2022-10-17T03:49:15.168Z,15.30
2022-10-17T03:50:14.228Z,22.10
2022-10-17T03:51:15.000Z,19.70
2022-10-17T03:52:14.930Z,22.10
2022-10-17T03:53:14.860Z,20.80
2022-10-17T03:54:14.190Z,24.70
2022-10-17T03:55:15.619Z,25.90
2022-10-17T03:56:14.950Z,28.00
2022-10-17T03:57:14.190Z,16.60
2022-10-17T03:58:15.061Z,15.40
2022-10-17T03:59:14.129Z,17.50
2022-10-17T04:00:14.939Z,20.30
2022-10-17T04:01:14.854Z,17.20
2022-10-17T04:02:14.099Z,21.90
2022-10-17T04:03:17.255Z,22.80
2022-10-17T04:04:14.909Z,22.40
2022-10-17T04:05:14.870Z,21.40
2022-10-17T04:06:14.840Z,21.60
2022-10-17T04:07:14.115Z,21.70
2022-10-17T04:08:14.899Z,20.60
2022-10-17T04:09:14.812Z,14.80
2022-10-17T04:10:14.660Z,17.10
2022-10-17T04:11:14.782Z,17.90
2022-10-17T04:12:14.662Z,14.80
2022-10-17T04:13:14.939Z,13.60
2022-10-17T04:14:14.670Z,17.30
2022-10-17T04:15:14.810Z,10.60
2022-10-17T04:16:14.619Z,11.10
2022-10-17T04:17:14.769Z,13.10
2022-10-17T04:18:14.730Z,15.80
2022-10-17T04:19:14.739Z,12.50
2022-10-17T04:20:14.640Z,14.80
2022-10-17T04:21:14.889Z,34.00
2022-10-17T04:22:14.679Z,80.80
2022-10-17T04:23:14.790Z,62.20
2022-10-17T04:24:14.709Z,40.70
2022-10-17T04:25:14.499Z,19.20
2022-10-17T04:26:14.699Z,16.00
2022-10-17T04:27:14.469Z,18.10
2022-10-17T04:28:14.719Z,18.60
2022-10-17T04:29:14.480Z,22.80
2022-10-17T04:30:14.829Z,17.10
2022-10-17T04:31:13.800Z,20.00
2022-10-17T04:32:14.641Z,14.40
2022-10-17T04:33:14.502Z,16.50
2022-10-17T04:34:14.639Z,17.90
2022-10-17T04:35:14.449Z,15.10
2022-10-17T04:36:14.580Z,17.20
2022-10-17T04:37:13.739Z,16.00
2022-10-17T04:38:14.589Z,12.00
2022-10-17T04:40:14.439Z,17.00
2022-10-17T04:41:14.499Z,11.80
2022-10-17T04:42:14.339Z,9.60
2022-10-17T04:43:14.451Z,8.10
2022-10-17T04:44:14.519Z,10.40
2022-10-17T04:45:14.502Z,10.40
2022-10-17T04:46:14.410Z,14.80
2022-10-17T04:47:14.473Z,12.60
2022-10-17T04:48:14.312Z,15.30
2022-10-17T04:49:14.650Z,10.30
2022-10-17T04:50:14.283Z,11.70
2022-10-17T04:51:14.419Z,9.30
2022-10-17T04:52:14.430Z,14.60
2022-10-17T04:53:14.520Z,21.80
2022-10-17T04:54:14.450Z,10.20
2022-10-17T04:55:14.190Z,10.30
2022-10-17T04:56:13.562Z,13.90
2022-10-17T04:57:14.119Z,19.10
2022-10-17T04:58:14.319Z,11.40
2022-10-17T04:59:14.209Z,12.50
2022-10-17T05:00:14.410Z,12.50
2022-10-17T05:01:14.272Z,12.60
2022-10-17T05:02:14.259Z,14.90
2022-10-17T05:03:14.149Z,14.80
2022-10-17T05:04:14.388Z,12.40
2022-10-17T05:05:14.169Z,18.00
2022-10-17T05:06:14.259Z,16.80
2022-10-17T05:07:14.190Z,15.60
2022-10-17T05:08:14.271Z,18.10
2022-10-17T05:09:14.369Z,14.90
2022-10-17T05:10:14.229Z,14.60
2022-10-17T05:11:14.200Z,15.50
2022-10-17T05:12:14.100Z,12.40
2022-10-17T05:13:14.152Z,11.70
2022-10-17T05:14:14.149Z,13.70
2022-10-17T05:15:13.339Z,16.70
2022-10-17T05:16:14.010Z,15.30
2022-10-17T05:17:14.199Z,14.40
2022-10-17T05:18:13.979Z,15.60
2022-10-17T05:19:14.220Z,12.30
2022-10-17T05:20:13.299Z,13.00
2022-10-17T05:21:15.210Z,12.90
2022-10-17T05:22:14.029Z,15.00
2022-10-17T05:23:14.059Z,11.70
2022-10-17T05:24:14.110Z,13.50
2022-10-17T05:25:14.060Z,24.30
2022-10-17T05:26:13.254Z,17.50
2022-10-17T05:27:14.879Z,13.40
2022-10-17T05:28:13.979Z,12.50
2022-10-17T05:29:13.263Z,10.80
2022-10-17T05:30:15.220Z,12.50
2022-10-17T05:31:14.128Z,12.80
2022-10-17T05:32:13.169Z,13.00
2022-10-17T05:33:13.819Z,11.00
2022-10-17T05:34:14.025Z,11.10
2022-10-17T05:35:14.029Z,11.50
2022-10-17T05:36:13.119Z,10.80
2022-10-17T05:37:14.390Z,8.90
2022-10-17T05:38:14.019Z,11.10
2022-10-17T05:39:13.849Z,12.00
2022-10-17T05:40:14.060Z,10.20
2022-10-17T05:41:13.839Z,13.20
2022-10-17T05:42:13.769Z,11.30
2022-10-17T05:43:13.930Z,13.70
2022-10-17T05:44:13.060Z,13.40
2022-10-17T05:45:14.511Z,13.30
2022-10-17T05:46:13.720Z,15.30
2022-10-17T05:47:13.069Z,14.10
2022-10-17T05:48:14.379Z,12.10
2022-10-17T05:49:25.223Z,14.40
2022-10-17T05:50:14.110Z,16.10
2022-10-17T05:51:13.039Z,14.60
2022-10-17T05:52:14.321Z,18.30
2022-10-17T05:53:13.769Z,16.30
2022-10-17T05:54:12.939Z,13.50
2022-10-17T05:55:13.748Z,13.70
2022-10-17T05:56:13.809Z,16.60
2022-10-17T05:57:13.488Z,12.70
2022-10-17T05:58:21.843Z,11.30
2022-10-17T05:59:13.519Z,13.20
2022-10-17T06:00:12.880Z,16.60
2022-10-17T06:01:14.409Z,12.50
2022-10-17T06:02:13.797Z,14.70
2022-10-17T06:03:12.880Z,16.90
2022-10-17T06:04:13.709Z,14.50
2022-10-17T06:05:12.819Z,13.70
2022-10-17T06:06:13.690Z,16.40
2022-10-17T06:07:13.599Z,14.80
2022-10-17T06:08:13.629Z,10.20
2022-10-17T06:09:13.570Z,15.00
2022-10-17T06:10:13.612Z,12.80
2022-10-17T06:11:12.770Z,10.90
2022-10-17T06:12:14.462Z,14.40
2022-10-17T06:13:12.773Z,36.10
2022-10-17T06:14:14.581Z,36.80
2022-10-17T06:15:13.528Z,38.30
2022-10-17T06:16:12.709Z,29.50
2022-10-17T06:17:16.184Z,21.80
2022-10-17T06:18:12.689Z,17.50
2022-10-17T06:19:13.509Z,18.30
2022-10-17T06:20:13.318Z,13.20
2022-10-17T06:21:13.449Z,19.60
2022-10-17T06:22:13.498Z,12.80
2022-10-17T06:23:12.640Z,15.70
2022-10-17T06:24:13.588Z,14.60
2022-10-17T06:25:13.488Z,13.80
2022-10-17T06:26:13.358Z,10.60
2022-10-17T06:27:13.239Z,14.90
2022-10-17T06:28:12.650Z,13.60
2022-10-17T06:29:13.169Z,12.00
2022-10-17T06:30:13.369Z,13.00
2022-10-17T06:31:13.190Z,13.00
2022-10-17T06:32:15.120Z,11.30
2022-10-17T06:33:12.580Z,12.00
2022-10-17T06:34:13.301Z,11.20
2022-10-17T06:35:13.549Z,11.50
2022-10-17T06:36:12.615Z,14.10
2022-10-17T06:37:13.921Z,12.70
2022-10-17T06:38:12.690Z,12.50
2022-10-17T06:39:13.270Z,12.10
2022-10-17T06:40:13.269Z,11.50
2022-10-17T06:41:13.269Z,10.50
2022-10-17T06:42:12.469Z,10.60
2022-10-17T06:43:13.212Z,13.20
2022-10-17T06:44:13.143Z,9.90
2022-10-17T06:45:12.428Z,12.20
2022-10-17T06:46:13.979Z,14.00
2022-10-17T06:47:15.382Z,10.90
2022-10-17T06:48:12.379Z,11.20
2022-10-17T06:49:12.379Z,10.30
2022-10-17T06:50:13.178Z,13.60
2022-10-17T06:51:12.349Z,11.20
2022-10-17T06:52:13.010Z,11.80
2022-10-17T06:53:12.328Z,13.00
2022-10-17T06:54:14.229Z,10.10
2022-10-17T06:55:14.884Z,11.80
2022-10-17T06:56:12.319Z,9.90
2022-10-17T06:57:13.180Z,11.80
2022-10-17T06:58:12.279Z,10.00
2022-10-17T06:59:13.929Z,12.50
2022-10-17T07:00:13.069Z,11.10
2022-10-17T07:01:12.349Z,10.10
2022-10-17T07:02:14.350Z,12.90
2022-10-17T07:03:13.100Z,12.50
2022-10-17T07:04:13.199Z,10.40
2022-10-17T07:05:12.879Z,14.10
2022-10-17T07:06:13.266Z,10.30
2022-10-17T07:07:12.988Z,12.80
2022-10-17T07:08:12.200Z,11.30
2022-10-17T07:09:13.589Z,12.00
2022-10-17T07:10:12.970Z,12.30
2022-10-17T07:11:12.199Z,11.10
2022-10-17T07:12:12.949Z,14.90
2022-10-17T07:13:12.899Z,11.40
2022-10-17T07:14:12.769Z,12.50
2022-10-17T07:15:13.008Z,15.90
2022-10-17T07:16:12.719Z,12.40
2022-10-17T07:17:13.130Z,12.70
2022-10-17T07:18:12.710Z,12.60
2022-10-17T07:19:12.869Z,14.90
2022-10-17T07:20:12.718Z,10.60
2022-10-17T07:21:12.848Z,12.60
2022-10-17T07:22:12.780Z,12.50
2022-10-17T07:23:12.879Z,10.50
2022-10-17T07:24:12.739Z,9.20
2022-10-17T07:25:12.820Z,13.20
2022-10-17T07:26:12.739Z,9.70
2022-10-17T07:27:12.800Z,11.50
2022-10-17T07:28:12.821Z,10.50
2022-10-17T07:29:12.620Z,13.70
2022-10-17T07:30:12.840Z,13.80
2022-10-17T07:31:12.559Z,11.10
2022-10-17T07:32:12.702Z,15.00
2022-10-17T07:33:12.620Z,14.50
2022-10-17T07:34:12.710Z,12.80
2022-10-17T07:35:12.736Z,14.10
2022-10-17T07:36:12.840Z,12.10
2022-10-17T07:37:12.658Z,11.40
2022-10-17T07:38:12.679Z,12.10
2022-10-17T07:39:12.679Z,10.70
2022-10-17T07:40:12.761Z,14.50
2022-10-17T07:41:28.213Z,13.60
2022-10-17T07:42:12.716Z,12.80
2022-10-17T07:43:12.615Z,13.50
2022-10-17T07:44:12.534Z,18.00
2022-10-17T07:45:12.605Z,11.10
2022-10-17T07:46:12.364Z,14.80
2022-10-17T07:47:12.625Z,15.00
2022-10-17T07:48:12.375Z,11.20
2022-10-17T07:49:12.576Z,10.20
2022-10-17T07:50:12.476Z,10.30
2022-10-17T07:51:12.559Z,15.30
2022-10-17T07:52:12.455Z,12.10
2022-10-17T07:53:12.665Z,14.40
2022-10-17T07:54:13.155Z,10.00
2022-10-17T07:55:12.505Z,15.70
2022-10-17T07:56:12.565Z,15.20
2022-10-17T07:57:12.488Z,13.30
2022-10-17T07:58:12.386Z,16.10
2022-10-17T07:59:12.565Z,20.60
2022-10-17T08:00:12.421Z,11.80
2022-10-17T08:01:14.950Z,14.40
2022-10-17T08:02:12.456Z,13.50
2022-10-17T08:03:12.314Z,15.60
2022-10-17T08:04:12.454Z,13.30
2022-10-17T08:05:12.267Z,13.60
2022-10-17T08:06:12.434Z,15.40
2022-10-17T08:07:21.762Z,16.10
2022-10-17T08:08:12.424Z,16.80
2022-10-17T08:09:12.386Z,14.90
2022-10-17T08:10:12.337Z,13.00
2022-10-17T08:11:11.546Z,9.40
2022-10-17T08:12:12.364Z,14.80
2022-10-17T08:13:12.305Z,11.20
2022-10-17T08:14:11.603Z,12.00
2022-10-17T08:15:12.295Z,14.60
2022-10-17T08:16:12.099Z,15.90
2022-10-17T08:17:11.464Z,13.30
2022-10-17T08:18:13.104Z,14.40
2022-10-17T08:19:12.276Z,11.90
2022-10-17T08:20:12.106Z,15.60
2022-10-17T08:21:12.224Z,13.80
2022-10-17T08:22:12.229Z,15.10
2022-10-17T08:23:12.425Z,11.40
2022-10-17T08:24:12.286Z,12.00
2022-10-17T08:25:12.225Z,12.10
2022-10-17T08:26:12.065Z,16.10
2022-10-17T08:27:12.165Z,12.10
2022-10-17T08:28:12.136Z,12.50
2022-10-17T08:29:12.228Z,13.40
2022-10-17T08:30:12.188Z,13.30
2022-10-17T08:31:11.957Z,10.80
2022-10-17T08:32:12.085Z,16.40
2022-10-17T08:33:11.946Z,15.20
2022-10-17T08:34:12.166Z,11.10
2022-10-17T08:35:12.585Z,11.10
2022-10-17T08:36:11.345Z,13.10
2022-10-17T08:37:11.947Z,11.40
2022-10-17T08:38:13.403Z,19.40
2022-10-17T08:39:11.936Z,13.30
2022-10-17T08:40:11.231Z,12.20
2022-10-17T08:41:11.911Z,13.60
2022-10-17T08:42:12.065Z,10.70
2022-10-17T08:43:11.954Z,11.70
2022-10-17T08:44:12.095Z,13.10
2022-10-17T08:45:11.925Z,14.30
2022-10-17T08:46:11.823Z,10.20
2022-10-17T08:47:11.945Z,13.20
2022-10-17T08:48:11.167Z,11.30
2022-10-17T08:49:12.219Z,14.60
2022-10-17T08:50:11.887Z,17.80
2022-10-17T08:51:11.995Z,14.40
2022-10-17T08:52:11.758Z,14.10
2022-10-17T08:53:11.926Z,13.00
2022-10-17T08:54:11.946Z,15.90
2022-10-17T08:55:12.052Z,13.40
2022-10-17T08:56:15.381Z,15.50
2022-10-17T08:57:11.839Z,13.50
2022-10-17T08:58:11.801Z,13.10
2022-10-17T08:59:11.865Z,12.40
2022-10-17T09:00:11.785Z,12.70
2022-10-17T09:01:13.229Z,20.30
2022-10-17T09:02:11.839Z,10.50
2022-10-17T09:03:11.767Z,14.30
2022-10-17T09:04:11.785Z,8.90
2022-10-17T09:05:11.628Z,16.20
2022-10-17T09:06:11.777Z,12.80
2022-10-17T09:07:11.717Z,20.10
2022-10-17T09:08:11.875Z,17.60
2022-10-17T09:09:11.753Z,14.10
2022-10-17T09:10:11.766Z,14.70
2022-10-17T09:11:11.616Z,14.40
2022-10-17T09:12:10.915Z,11.40
2022-10-17T09:13:12.837Z,13.00
2022-10-17T09:14:11.764Z,16.70
2022-10-17T09:15:11.716Z,12.40
2022-10-17T09:16:11.640Z,12.80
2022-10-17T09:17:11.656Z,13.80
2022-10-17T09:18:10.866Z,12.90
2022-10-17T09:19:11.763Z,17.90
2022-10-17T09:20:11.535Z,12.40
2022-10-17T09:21:11.609Z,14.40
2022-10-17T09:22:11.496Z,13.40
2022-10-17T09:23:11.548Z,12.10
2022-10-17T09:24:15.774Z,14.60
2022-10-17T09:25:11.596Z,13.00
2022-10-17T09:26:11.614Z,13.20
2022-10-17T09:27:11.544Z,14.20
2022-10-17T09:28:11.599Z,13.40
2022-10-17T09:29:11.714Z,13.20
2022-10-17T09:30:21.335Z,15.30
2022-10-17T09:31:11.560Z,15.00
2022-10-17T09:32:11.575Z,13.70
2022-10-17T09:33:23.105Z,15.00
2022-10-17T09:34:11.744Z,15.10
2022-10-17T09:35:11.325Z,12.70
2022-10-17T09:36:11.416Z,14.20
2022-10-17T09:37:11.260Z,12.50
2022-10-17T09:38:11.535Z,20.40
2022-10-17T09:39:11.325Z,11.90
2022-10-17T09:40:11.555Z,14.60
2022-10-17T09:41:31.975Z,21.10
2022-10-17T09:42:11.558Z,16.50
2022-10-17T09:43:11.315Z,14.30
2022-10-17T09:44:11.604Z,14.50
2022-10-17T09:45:11.396Z,16.40
2022-10-17T09:46:11.375Z,17.70
2022-10-17T09:47:12.347Z,17.90
2022-10-17T09:48:11.173Z,19.00
2022-10-17T09:49:12.310Z,23.20
2022-10-17T09:50:11.243Z,16.60
2022-10-17T09:51:21.897Z,14.80
2022-10-17T09:52:11.257Z,15.70
2022-10-17T09:53:11.285Z,16.00
2022-10-17T09:54:10.466Z,13.60
2022-10-17T09:55:11.915Z,13.50
2022-10-17T09:56:10.975Z,15.30
2022-10-17T09:57:11.280Z,12.20
2022-10-17T09:58:11.210Z,12.10
2022-10-17T09:59:13.764Z,13.40
2022-10-17T10:00:12.146Z,18.20
2022-10-17T10:01:11.296Z,14.00
2022-10-17T10:02:11.157Z,16.50
2022-10-17T10:03:11.134Z,15.20
2022-10-17T10:04:10.447Z,17.60
2022-10-17T10:05:11.035Z,17.00
2022-10-17T10:06:11.116Z,12.40
2022-10-17T10:07:10.905Z,12.90
2022-10-17T10:08:11.085Z,17.10
2022-10-17T10:09:10.366Z,13.40
2022-10-17T10:10:12.624Z,14.80
2022-10-17T10:11:13.891Z,18.40
2022-10-17T10:12:10.305Z,13.30
2022-10-17T10:13:11.518Z,17.60
2022-10-17T10:14:11.119Z,16.40
2022-10-17T10:15:10.964Z,15.50
2022-10-17T10:16:10.412Z,16.10
2022-10-17T10:17:11.557Z,15.70
2022-10-17T10:18:11.085Z,16.00
2022-10-17T10:19:10.196Z,13.60
2022-10-17T10:20:11.526Z,14.20
2022-10-17T10:21:10.950Z,12.10
2022-10-17T10:22:10.234Z,14.20
2022-10-17T10:23:11.484Z,17.10
2022-10-17T10:24:10.841Z,14.70
2022-10-17T10:25:10.133Z,16.10
2022-10-17T10:26:12.426Z,13.30
2022-10-17T10:27:10.974Z,15.90
2022-10-17T10:28:10.877Z,14.60
2022-10-17T10:29:11.041Z,19.90
2022-10-17T10:30:10.094Z,20.00
2022-10-17T10:31:11.373Z,14.60
2022-10-17T10:32:10.616Z,18.80
2022-10-17T10:33:10.078Z,12.60
2022-10-17T10:34:11.735Z,17.30
2022-10-17T10:35:10.748Z,13.80
2022-10-17T10:36:11.454Z,14.20
2022-10-17T10:37:13.473Z,13.70
2022-10-17T10:38:10.904Z,17.30
2022-10-17T10:39:10.074Z,15.20
2022-10-17T10:40:11.536Z,15.70
2022-10-17T10:41:10.645Z,24.50
2022-10-17T10:42:10.786Z,13.40
2022-10-17T10:43:10.025Z,20.80
2022-10-17T10:44:11.574Z,15.00
2022-10-17T10:45:23.667Z,19.20
2022-10-17T10:46:10.928Z,16.20
2022-10-17T10:47:11.365Z,14.90
2022-10-17T10:48:09.895Z,12.30
2022-10-17T10:49:11.965Z,13.30
2022-10-17T10:50:10.808Z,25.10
2022-10-17T10:51:10.728Z,22.70
2022-10-17T10:52:09.855Z,19.00
2022-10-17T10:53:11.766Z,14.90
2022-10-17T10:54:10.555Z,15.20
2022-10-17T10:55:09.835Z,12.60
2022-10-17T10:56:11.825Z,16.10
2022-10-17T10:57:11.036Z,14.20
2022-10-17T10:58:10.499Z,15.40
2022-10-17T10:59:10.865Z,19.50
2022-10-17T11:00:11.225Z,13.20
2022-10-17T11:01:10.661Z,16.00
2022-10-17T11:02:10.504Z,15.40
2022-10-17T11:03:12.662Z,17.90
2022-10-17T11:04:09.766Z,12.80
2022-10-17T11:05:10.602Z,13.80
2022-10-17T11:06:10.615Z,16.90
2022-10-17T11:07:10.826Z,11.00
2022-10-17T11:08:10.514Z,14.30
2022-10-17T11:09:09.707Z,15.20
2022-10-17T11:10:10.954Z,22.20
2022-10-17T11:11:09.826Z,16.90
2022-10-17T11:12:09.701Z,16.30
2022-10-17T11:13:11.127Z,13.30
2022-10-17T11:14:13.047Z,17.20
2022-10-17T11:15:10.357Z,14.30
2022-10-17T11:16:10.414Z,14.80
2022-10-17T11:17:10.415Z,17.00
2022-10-17T11:18:10.444Z,12.60
2022-10-17T11:19:10.325Z,20.60
2022-10-17T11:20:10.416Z,14.40
2022-10-17T11:21:10.365Z,16.30
2022-10-17T11:22:10.186Z,15.10
2022-10-17T11:23:10.405Z,12.30
2022-10-17T11:24:10.167Z,13.50
2022-10-17T11:25:10.344Z,14.70
2022-10-17T11:26:10.175Z,17.30
2022-10-17T11:27:09.518Z,19.60
2022-10-17T11:28:10.178Z,13.50
2022-10-17T11:29:09.585Z,17.30
2022-10-17T11:30:11.544Z,10.60
2022-10-17T11:31:10.365Z,14.90
2022-10-17T11:32:09.447Z,17.20
2022-10-17T11:33:11.035Z,16.30
2022-10-17T11:34:09.905Z,15.70
2022-10-17T11:35:10.375Z,16.40
2022-10-17T11:36:09.405Z,18.40
2022-10-17T11:37:10.075Z,13.60
2022-10-17T11:38:10.174Z,14.00
2022-10-17T11:39:09.995Z,11.60
2022-10-17T11:40:10.174Z,15.90
2022-10-17T11:41:10.075Z,14.20
2022-10-17T11:42:10.195Z,15.70
2022-10-17T11:43:10.005Z,15.50
2022-10-17T11:44:10.154Z,15.80
2022-10-17T11:45:09.975Z,18.00
2022-10-17T11:46:10.135Z,14.50
2022-10-17T11:47:10.054Z,12.40
2022-10-17T11:48:09.296Z,14.50
2022-10-17T11:49:10.442Z,12.50
2022-10-17T11:52:10.815Z,13.70
2022-10-17T11:53:10.086Z,10.10
2022-10-17T11:54:09.827Z,14.60
2022-10-17T11:55:10.016Z,12.10
2022-10-17T11:56:09.885Z,12.10
2022-10-17T11:57:13.961Z,12.10
2022-10-17T11:58:09.815Z,15.70
2022-10-17T11:59:10.175Z,13.70
2022-10-17T12:00:10.044Z,15.40
2022-10-17T12:01:09.996Z,14.20
2022-10-17T12:02:09.914Z,15.60
2022-10-17T12:03:10.115Z,10.50
2022-10-17T12:04:09.899Z,15.50
2022-10-17T12:05:10.025Z,17.90
2022-10-17T12:06:09.813Z,12.30
2022-10-17T12:07:10.053Z,13.80
2022-10-17T12:08:09.899Z,13.50
2022-10-17T12:09:09.687Z,12.10
2022-10-17T12:10:09.885Z,13.20
2022-10-17T12:11:09.765Z,14.50
2022-10-17T12:12:09.855Z,10.10
2022-10-17T12:13:09.695Z,10.10
2022-10-17T12:14:09.855Z,11.80
2022-10-17T12:15:10.288Z,14.60
2022-10-17T12:16:11.022Z,14.80
2022-10-17T12:17:09.793Z,14.80
2022-10-17T12:18:09.845Z,16.60
2022-10-17T12:19:09.675Z,12.50
2022-10-17T12:20:09.725Z,16.20
2022-10-17T12:21:09.824Z,14.00
2022-10-17T12:22:09.734Z,14.20
2022-10-17T12:23:09.779Z,12.40
2022-10-17T12:24:09.555Z,12.30
2022-10-17T12:25:09.698Z,13.30
2022-10-17T12:26:09.776Z,13.20
2022-10-17T12:27:09.725Z,11.20
2022-10-17T12:28:09.516Z,13.50
2022-10-17T12:29:09.907Z,9.70
2022-10-17T12:30:09.665Z,10.60
2022-10-17T12:31:09.787Z,11.10
2022-10-17T12:32:09.566Z,12.90
2022-10-17T12:33:09.635Z,14.40
2022-10-17T12:34:09.766Z,12.30
2022-10-17T12:35:09.655Z,13.10
2022-10-17T12:36:09.536Z,12.40
2022-10-17T12:37:09.605Z,14.70
2022-10-17T12:38:09.546Z,14.00
2022-10-17T12:39:09.434Z,14.00
2022-10-17T12:40:09.605Z,16.10
2022-10-17T12:41:09.455Z,12.70
2022-10-17T12:42:09.476Z,11.70
2022-10-17T12:43:09.475Z,12.30
2022-10-17T12:44:09.487Z,12.90
2022-10-17T12:45:09.355Z,10.40
2022-10-17T12:46:09.474Z,15.30
2022-10-17T12:47:09.465Z,13.10
2022-10-17T12:48:09.444Z,11.90
2022-10-17T12:49:09.376Z,15.40
2022-10-17T12:50:09.467Z,11.20
2022-10-17T12:51:34.303Z,12.40
2022-10-17T12:52:09.577Z,8.60
2022-10-17T12:53:09.386Z,14.20
2022-10-17T12:54:09.227Z,11.40
2022-10-17T12:55:13.805Z,9.70
2022-10-17T12:56:09.259Z,11.90